Nebraska City, NE

9:48 AM CST on February 20, 2017 (GMT -0600)
Nebraska City Municipal

Weather History for KAFK - March, 2014

Change the Weather History Date:

Tuesday, March 11, 2014

  Actual Average (KSDA) Record (KSDA)
Temperature  
Mean Temperature 42 °F -  
Max Temperature 50 °F 51 °F 83 °F (1972)
Min Temperature 35 °F 29 °F -5 °F (1998)
Degree Days  
Heating Degree Days 23    
Moisture  
Dew Point 33 °F    
Average Humidity 66    
Maximum Humidity 91    
Minimum Humidity 52    
Precipitation  
Precipitation 0.00 in - - ()
Sea Level Pressure  
Sea Level Pressure 29.66 in    
Wind  
Wind Speed 13 mph (NE)    
Max Wind Speed 37 mph    
Max Gust Speed 48 mph    
Visibility 10 miles    
Events Rain    
Averages and records for this station are not official NWS values.
T = Trace of Precipitation, MM = Missing Value Source: NWS Daily Summary

Daily Weather History Graph

Daily Weather History Graph

Search for Another Location

Airport or City:

Trip Planner

Search our weather history database for the weather conditions in past years. The results will help you decide how hot, cold, wet, or windy it might be!

Date:

Astronomy

Mar. 11, 2014 Rise Set
Actual Time 7:41 AM CDT 7:25 PM CDT
Civil Twilight 7:14 AM CDT 7:53 PM CDT
Nautical Twilight 6:42 AM CDT 8:24 PM CDT
Astronomical Twilight 6:10 AM CDT 8:56 PM CDT
Moon 3:02 PM CDT (3/11) 4:36 AM CDT (3/11)
Length of Visible Light 12h 38m
Length of Day
11h 44m
Waxing Gibbous, 78% of the Moon is Illuminated
Mar 11
Waxing Gibbous
Mar 16
Full
Mar 23
Last Quarter
Mar 30
New
Apr 7
First Quarter

Hourly Weather History & Observations

Time (CDT) Temp. Windchill Dew Point Humidity Pressure Visibility Wind Dir Wind Speed Gust Speed Precip Events Conditions
12:15 AM 47.1 °F - 35.2 °F 63% 29.60 in 10.0 mi South 8.1 mph - N/A   Clear
12:35 AM 47.1 °F - 35.4 °F 64% 29.60 in 10.0 mi South 9.2 mph - N/A   Clear
12:55 AM 46.6 °F - 35.2 °F 65% 29.59 in 10.0 mi South 8.1 mph - N/A   Clear
1:15 AM 48.6 °F - 35.8 °F 61% 29.58 in 10.0 mi South 8.1 mph - N/A   Clear
1:35 AM 47.7 °F - 35.1 °F 62% 29.57 in 10.0 mi South 9.2 mph - N/A   Clear
1:55 AM 48.2 °F - 35.1 °F 60% 29.57 in 10.0 mi South 10.4 mph - N/A   Clear
2:15 AM 47.7 °F - 35.1 °F 62% 29.56 in 10.0 mi South 8.1 mph - N/A   Clear
2:35 AM 48.2 °F - 34.9 °F 60% 29.55 in 10.0 mi South 6.9 mph - N/A   Clear
2:55 AM 48.2 °F - 34.3 °F 59% 29.55 in 10.0 mi South 8.1 mph - N/A   Clear
3:15 AM 48.4 °F - 33.8 °F 57% 29.54 in 10.0 mi SSW 8.1 mph - N/A   Clear
3:35 AM 48.7 °F - 33.8 °F 56% 29.53 in 10.0 mi South 10.4 mph - N/A   Clear
3:55 AM 46.4 °F 41.5 °F 33.1 °F 60% 29.51 in 10.0 mi SSW 10.4 mph - N/A   Clear
4:15 AM 48.2 °F - 32.2 °F 54% 29.50 in 10.0 mi SW 8.1 mph - N/A   Clear
4:35 AM 47.3 °F - 32.0 °F 55% 29.50 in 10.0 mi SSW 6.9 mph - N/A   Clear
4:55 AM 45.7 °F - 32.2 °F 59% 29.50 in 10.0 mi Calm Calm - N/A   Clear
5:15 AM 48.7 °F - 32.0 °F 52% 29.49 in 10.0 mi Calm Calm - N/A   Clear
5:35 AM 44.6 °F 42.2 °F 32.2 °F 62% 29.49 in 10.0 mi SSE 4.6 mph - N/A   Clear
5:55 AM 43.3 °F 38.6 °F 32.2 °F 65% 29.48 in 10.0 mi South 8.1 mph - N/A   Clear
6:15 AM 43.5 °F 39.4 °F 32.0 °F 64% 29.48 in 10.0 mi SSE 6.9 mph - N/A   Clear
6:35 AM 43.9 °F 39.9 °F 32.0 °F 63% 29.47 in 10.0 mi SSE 6.9 mph - N/A   Clear
6:55 AM 44.4 °F 41.2 °F 31.8 °F 61% 29.47 in 10.0 mi South 5.8 mph - N/A   Clear
7:15 AM 44.1 °F 40.8 °F 31.8 °F 62% 29.47 in 10.0 mi South 5.8 mph - N/A   Clear
7:35 AM 43.0 °F 39.5 °F 31.8 °F 65% 29.48 in 10.0 mi SSE 5.8 mph - N/A   Clear
7:55 AM 46.0 °F 43.9 °F 31.1 °F 56% 29.48 in 10.0 mi SE 4.6 mph - N/A   Clear
8:15 AM 45.3 °F - 31.1 °F 58% 29.49 in 10.0 mi Calm Calm - N/A   Clear
8:35 AM 44.1 °F 40.8 °F 31.3 °F 61% 29.49 in 10.0 mi NNE 5.8 mph - N/A   Clear
8:55 AM 43.9 °F 42.3 °F 32.0 °F 63% 29.50 in 10.0 mi East 3.5 mph - N/A   Clear
9:15 AM 47.3 °F - 32.2 °F 56% 29.50 in 10.0 mi Calm Calm - N/A   Clear
9:35 AM 46.9 °F - 32.7 °F 58% 29.51 in 10.0 mi ENE 4.6 mph - N/A   Clear
9:55 AM 46.9 °F - 32.5 °F 57% 29.52 in 10.0 mi NE 4.6 mph - N/A   Clear
10:15 AM 47.3 °F - 33.1 °F 58% 29.53 in 10.0 mi Calm Calm - N/A   Clear
10:35 AM 48.2 °F - 32.9 °F 55% 29.53 in 10.0 mi NE 3.5 mph - N/A   Clear
10:55 AM 48.4 °F - 33.6 °F 57% 29.53 in 10.0 mi NNE 15.0 mph - N/A   Clear
11:15 AM 46.4 °F 39.2 °F 35.1 °F 65% 29.52 in 10.0 mi NE 18.4 mph - N/A   Clear
11:35 AM 46.8 °F - 36.1 °F 67% 29.57 in 10.0 mi NNE 15.0 mph 20.7 mph N/A   Clear
11:55 AM 46.4 °F 38.5 °F 36.5 °F 68% 29.56 in 10.0 mi NE 21.9 mph 28.8 mph N/A   Clear
12:15 PM 46.8 °F - 36.5 °F 67% 29.54 in 10.0 mi NE 27.6 mph 32.2 mph N/A   Clear
12:35 PM 47.1 °F - 33.8 °F 60% 29.57 in 10.0 mi NNE 29.9 mph 35.7 mph N/A   Clear
12:55 PM 49.3 °F - 32.9 °F 53% 29.61 in 10.0 mi NE 25.3 mph 32.2 mph N/A   Clear
1:15 PM 49.1 °F - 32.2 °F 52% 29.62 in 10.0 mi NNE 27.6 mph 32.2 mph N/A   Clear
1:35 PM 48.6 °F - 32.5 °F 54% 29.60 in 10.0 mi NE 26.5 mph 36.8 mph N/A   Clear
1:55 PM 47.8 °F - 33.4 °F 57% 29.61 in 10.0 mi NNE 29.9 mph 40.3 mph N/A   Scattered Clouds
2:15 PM 47.8 °F - 33.3 °F 57% 29.62 in 10.0 mi NE 29.9 mph 44.9 mph N/A   Mostly Cloudy
2:35 PM 49.1 °F - 33.6 °F 55% 29.62 in 10.0 mi NE 36.8 mph 43.7 mph N/A   Mostly Cloudy
2:55 PM 48.6 °F - 33.8 °F 57% 29.63 in 10.0 mi NE 29.9 mph 38.0 mph N/A   Overcast
3:15 PM 48.4 °F - 34.2 °F 58% 29.66 in 10.0 mi NE 26.5 mph 39.1 mph N/A   Overcast
3:35 PM 47.5 °F - 34.9 °F 62% 29.68 in 10.0 mi NNE 33.4 mph 40.3 mph N/A   Overcast
3:55 PM 47.3 °F - 34.7 °F 62% 29.69 in 10.0 mi NNE 29.9 mph 40.3 mph N/A   Overcast
4:15 PM 47.1 °F - 34.9 °F 62% 29.71 in 10.0 mi NNE 28.8 mph 40.3 mph N/A   Overcast
4:35 PM 45.5 °F 35.8 °F 34.5 °F 65% 29.74 in 10.0 mi NNE 31.1 mph 47.2 mph N/A   Overcast
4:55 PM 44.6 °F 34.1 °F 34.2 °F 67% 29.73 in 10.0 mi NNE 34.5 mph 41.4 mph N/A   Overcast
5:15 PM 44.2 °F 34.1 °F 34.2 °F 68% 29.75 in 10.0 mi NNE 31.1 mph 42.6 mph N/A   Overcast
5:35 PM 43.7 °F 32.5 °F 34.2 °F 69% 29.75 in 10.0 mi NNE 36.8 mph 44.9 mph N/A   Overcast
5:55 PM 43.2 °F 32.6 °F 34.2 °F 71% 29.77 in 10.0 mi NNE 31.1 mph 47.2 mph N/A   Overcast
6:15 PM 42.1 °F 30.8 °F 34.0 °F 73% 29.79 in 10.0 mi NNE 33.4 mph 40.3 mph N/A   Overcast
6:35 PM 41.0 °F 29.5 °F 33.3 °F 74% 29.82 in 10.0 mi NNE 32.2 mph 47.2 mph N/A   Overcast
6:55 PM 41.0 °F 30.5 °F 32.2 °F 71% 29.84 in 10.0 mi NNE 26.5 mph 48.3 mph N/A   Overcast
7:15 PM 40.5 °F 28.6 °F 32.0 °F 72% 29.87 in 10.0 mi NNE 33.4 mph 47.2 mph N/A   Overcast
7:35 PM 38.7 °F 26.3 °F 31.1 °F 74% 29.90 in 10.0 mi NNE 32.2 mph 44.9 mph N/A   Overcast
7:55 PM 37.6 °F 25.6 °F 30.2 °F 75% 29.92 in 10.0 mi NNE 27.6 mph 40.3 mph N/A   Overcast
8:15 PM 37.0 °F 24.7 °F 30.9 °F 79% 29.93 in 10.0 mi North 28.8 mph 36.8 mph N/A   Overcast
8:35 PM 36.0 °F 23.2 °F 32.0 °F 86% 29.94 in 7.0 mi NNE 28.8 mph 39.1 mph N/A Rain Light Rain
8:55 PM 35.1 °F 24.1 °F 32.7 °F 91% 29.96 in 10.0 mi NNE 19.6 mph 35.7 mph N/A Rain Light Rain
9:15 PM 35.2 °F 24.7 °F 32.7 °F 91% 29.97 in 10.0 mi North 18.4 mph 24.2 mph N/A   Overcast
9:35 PM 35.2 °F 25.4 °F 32.5 °F 90% 29.98 in 10.0 mi North 16.1 mph - N/A   Overcast
9:55 PM 35.2 °F 25.8 °F 32.9 °F 91% 29.99 in 10.0 mi North 15.0 mph - N/A   Overcast
10:15 PM 35.6 °F 25.5 °F 32.5 °F 89% 30.00 in 10.0 mi North 17.3 mph 21.9 mph N/A   Overcast
10:35 PM 35.8 °F 26.5 °F 32.4 °F 87% 30.00 in 10.0 mi North 15.0 mph 20.7 mph N/A   Overcast
10:55 PM 36.0 °F 28.0 °F 32.9 °F 89% 30.02 in 10.0 mi North 11.5 mph 17.3 mph N/A   Overcast
11:15 PM 36.7 °F 27.6 °F 33.3 °F 87% 30.03 in 10.0 mi North 15.0 mph - N/A   Overcast
11:35 PM 37.6 °F 27.7 °F 33.3 °F 84% 30.03 in 10.0 mi North 18.4 mph - N/A   Overcast
11:55 PM 37.6 °F 28.4 °F 32.5 °F 82% 30.04 in 10.0 mi North 16.1 mph 24.2 mph N/A   Mostly Cloudy